Terminal Aerodrome Forecast
Issued by NWS Kansas City/Pleasant Hill, MO

Home | Current Version | Previous Version | Text Only | Print | Product List | Glossary On
Versions: 1 2 3 4 5 6 7 8 9 10 11 12 13 14 15 16 17 18
548
FTUS43 KEAX 011123
TAFMCI
TAF
KMCI 011123Z 0112/0212 26004KT P6SM OVC045
     FM011500 31008KT P6SM OVC025
     FM012100 33011KT P6SM OVC035
     FM020100 35008KT P6SM BKN025
     FM021000 34005KT P6SM BKN010=

USA.gov is the U.S. government's official web portal to all federal, state and local government web resources and services.